Amity, Missouri
Current Conditions -  °F | °C
As of 3:11 AM on Friday 19 Dec 2014 (Local Time) from KSTJ Reporting Station
Overcast Overcast  
Wind Chill: -4°   Ceiling: 900
Heat Index: -1°   Visibility: 10mi
Dew Point: -2°   Wind: 6mph
Humidity: 92%   Direction: 240°WSW
Pressure: 30.28"   Gusts: NA
Location:  39.87°N, 94.44°W
Report Text: KSTJ 190911Z AUTO 24005KT 10SM OVC009 M01/M02 A3028 RMK AO2 T10111022
Loading
Personal Weather Stations






























Interactive Weather Map New forecast layout! Learn more

10-Day Weather Forecast

Advertisements
Track Severe Weather on mobile